sensor_id;sensor_type;location;lat;lon;timestamp;temperature;humidity
52397;DHT22;38322;53.108;6.308;2023-07-13T05:01:26;16.30;99.90
52397;DHT22;38322;53.108;6.308;2023-07-13T05:03:52;16.30;99.90
52397;DHT22;38322;53.108;6.308;2023-07-13T05:06:18;16.40;99.90
52397;DHT22;38322;53.108;6.308;2023-07-13T05:08:44;16.50;99.90
52397;DHT22;38322;53.108;6.308;2023-07-13T05:11:10;16.60;99.90
52397;DHT22;38322;53.108;6.308;2023-07-13T05:13:35;16.60;99.90
52397;DHT22;38322;53.108;6.308;2023-07-13T05:16:04;16.70;99.90
52397;DHT22;38322;53.108;6.308;2023-07-13T05:18:30;16.70;99.90
52397;DHT22;38322;53.108;6.308;2023-07-13T05:20:58;16.80;99.90
52397;DHT22;38322;53.108;6.308;2023-07-13T05:23:24;16.80;99.90
52397;DHT22;38322;53.108;6.308;2023-07-13T05:25:50;16.90;99.90
52397;DHT22;38322;53.108;6.308;2023-07-13T05:28:16;17.00;99.90
52397;DHT22;38322;53.108;6.308;2023-07-13T05:30:46;17.00;99.90
52397;DHT22;38322;53.108;6.308;2023-07-13T05:33:12;17.10;99.90
52397;DHT22;38322;53.108;6.308;2023-07-13T05:35:38;17.10;99.90
52397;DHT22;38322;53.108;6.308;2023-07-13T05:38:04;17.10;99.90
52397;DHT22;38322;53.108;6.308;2023-07-13T05:40:30;17.20;99.90
52397;DHT22;38322;53.108;6.308;2023-07-13T05:42:56;17.20;99.90
52397;DHT22;38322;53.108;6.308;2023-07-13T05:45:21;17.30;99.90
52397;DHT22;38322;53.108;6.308;2023-07-13T05:47:47;17.30;99.90
52397;DHT22;38322;53.108;6.308;2023-07-13T05:50:13;17.40;99.90
52397;DHT22;38322;53.108;6.308;2023-07-13T05:52:39;17.40;99.90
52397;DHT22;38322;53.108;6.308;2023-07-13T05:55:05;17.50;99.90
52397;DHT22;38322;53.108;6.308;2023-07-13T05:57:31;17.50;99.90
52397;DHT22;38322;53.108;6.308;2023-07-13T05:59:57;17.60;99.90
52397;DHT22;38322;53.108;6.308;2023-07-13T06:02:23;17.70;99.90
52397;DHT22;38322;53.108;6.308;2023-07-13T06:04:49;17.90;99.90
52397;DHT22;38322;53.108;6.308;2023-07-13T06:07:15;17.90;99.90
52397;DHT22;38322;53.108;6.308;2023-07-13T06:09:41;17.90;99.90
52397;DHT22;38322;53.108;6.308;2023-07-13T06:12:07;18.00;99.90
52397;DHT22;38322;53.108;6.308;2023-07-13T06:14:33;18.00;99.90
52397;DHT22;38322;53.108;6.308;2023-07-13T06:16:59;18.00;99.90
52397;DHT22;38322;53.108;6.308;2023-07-13T06:19:25;18.00;99.90
52397;DHT22;38322;53.108;6.308;2023-07-13T06:21:50;18.10;99.90
52397;DHT22;38322;53.108;6.308;2023-07-13T06:24:16;18.10;99.90
52397;DHT22;38322;53.108;6.308;2023-07-13T06:26:42;18.00;99.90
52397;DHT22;38322;53.108;6.308;2023-07-13T06:29:08;18.00;99.90
52397;DHT22;38322;53.108;6.308;2023-07-13T06:31:34;18.10;99.90
52397;DHT22;38322;53.108;6.308;2023-07-13T06:34:00;18.20;99.90
52397;DHT22;38322;53.108;6.308;2023-07-13T06:36:26;18.30;99.90
52397;DHT22;38322;53.108;6.308;2023-07-13T06:38:52;18.30;99.90
52397;DHT22;38322;53.108;6.308;2023-07-13T06:41:17;18.50;99.90
52397;DHT22;38322;53.108;6.308;2023-07-13T06:43:43;18.60;99.90
52397;DHT22;38322;53.108;6.308;2023-07-13T06:46:09;18.50;99.90
52397;DHT22;38322;53.108;6.308;2023-07-13T06:48:35;18.60;99.90
52397;DHT22;38322;53.108;6.308;2023-07-13T06:51:02;18.50;99.90
52397;DHT22;38322;53.108;6.308;2023-07-13T06:53:28;18.40;99.90
52397;DHT22;38322;53.108;6.308;2023-07-13T06:55:54;18.30;99.90
52397;DHT22;38322;53.108;6.308;2023-07-13T06:58:20;18.30;99.90
52397;DHT22;38322;53.108;6.308;2023-07-13T07:00:50;18.20;99.90
52397;DHT22;38322;53.108;6.308;2023-07-13T07:03:16;18.20;99.90
52397;DHT22;38322;53.108;6.308;2023-07-13T07:05:42;18.20;99.90
52397;DHT22;38322;53.108;6.308;2023-07-13T07:08:08;18.20;99.90
52397;DHT22;38322;53.108;6.308;2023-07-13T07:10:35;18.10;99.90
52397;DHT22;38322;53.108;6.308;2023-07-13T07:13:01;18.10;99.90
52397;DHT22;38322;53.108;6.308;2023-07-13T07:15:28;18.30;99.90
52397;DHT22;38322;53.108;6.308;2023-07-13T07:17:54;18.40;99.90
52397;DHT22;38322;53.108;6.308;2023-07-13T07:20:20;18.60;99.90
52397;DHT22;38322;53.108;6.308;2023-07-13T07:22:47;18.70;99.90
52397;DHT22;38322;53.108;6.308;2023-07-13T07:25:13;18.80;99.90
52397;DHT22;38322;53.108;6.308;2023-07-13T07:27:39;18.80;99.90
52397;DHT22;38322;53.108;6.308;2023-07-13T07:30:05;18.70;99.90
52397;DHT22;38322;53.108;6.308;2023-07-13T07:32:32;18.70;99.90
52397;DHT22;38322;53.108;6.308;2023-07-13T07:34:58;18.70;99.90
52397;DHT22;38322;53.108;6.308;2023-07-13T07:37:24;18.50;99.90
52397;DHT22;38322;53.108;6.308;2023-07-13T07:39:50;18.40;99.90
52397;DHT22;38322;53.108;6.308;2023-07-13T07:42:16;18.40;99.90
52397;DHT22;38322;53.108;6.308;2023-07-13T07:44:42;18.40;99.90
52397;DHT22;38322;53.108;6.308;2023-07-13T07:47:09;18.40;99.90
52397;DHT22;38322;53.108;6.308;2023-07-13T07:49:35;18.40;99.90
52397;DHT22;38322;53.108;6.308;2023-07-13T07:52:01;18.50;99.90
52397;DHT22;38322;53.108;6.308;2023-07-13T07:54:27;18.50;99.90
52397;DHT22;38322;53.108;6.308;2023-07-13T07:56:53;18.40;99.90
52397;DHT22;38322;53.108;6.308;2023-07-13T07:59:19;18.50;99.90
52397;DHT22;38322;53.108;6.308;2023-07-13T08:01:45;18.60;99.90
52397;DHT22;38322;53.108;6.308;2023-07-13T08:04:13;18.60;99.90
52397;DHT22;38322;53.108;6.308;2023-07-13T08:06:39;18.70;99.90
52397;DHT22;38322;53.108;6.308;2023-07-13T08:09:05;18.80;99.90
52397;DHT22;38322;53.108;6.308;2023-07-13T08:11:31;18.80;99.90
52397;DHT22;38322;53.108;6.308;2023-07-13T08:13:57;18.90;99.90
52397;DHT22;38322;53.108;6.308;2023-07-13T08:16:23;19.00;99.90
52397;DHT22;38322;53.108;6.308;2023-07-13T08:18:49;18.90;99.90
52397;DHT22;38322;53.108;6.308;2023-07-13T08:21:15;19.00;99.90
52397;DHT22;38322;53.108;6.308;2023-07-13T08:23:41;19.00;99.90
52397;DHT22;38322;53.108;6.308;2023-07-13T08:26:09;19.00;99.90
52397;DHT22;38322;53.108;6.308;2023-07-13T08:28:34;19.00;99.90
52397;DHT22;38322;53.108;6.308;2023-07-13T08:31:07;19.10;99.90
52397;DHT22;38322;53.108;6.308;2023-07-13T08:33:35;19.00;99.90
52397;DHT22;38322;53.108;6.308;2023-07-13T08:36:01;19.10;99.90
52397;DHT22;38322;53.108;6.308;2023-07-13T08:38:27;19.20;99.90
52397;DHT22;38322;53.108;6.308;2023-07-13T08:40:55;19.40;99.90
52397;DHT22;38322;53.108;6.308;2023-07-13T08:43:29;19.50;99.90
52397;DHT22;38322;53.108;6.308;2023-07-13T08:46:09;19.60;99.90
52397;DHT22;38322;53.108;6.308;2023-07-13T08:48:43;19.80;99.90
52397;DHT22;38322;53.108;6.308;2023-07-13T08:54:02;20.00;99.90
52397;DHT22;38322;53.108;6.308;2023-07-13T08:56:30;20.10;99.90
52397;DHT22;38322;53.108;6.308;2023-07-13T08:58:59;20.10;99.90
52397;DHT22;38322;53.108;6.308;2023-07-13T09:01:40;20.00;99.90
52397;DHT22;38322;53.108;6.308;2023-07-13T09:04:19;19.90;99.90
52397;DHT22;38322;53.108;6.308;2023-07-13T09:12:29;19.90;99.90
52397;DHT22;38322;53.108;6.308;2023-07-13T09:14:58;19.90;99.90
52397;DHT22;38322;53.108;6.308;2023-07-13T09:17:31;19.70;99.90
52397;DHT22;38322;53.108;6.308;2023-07-13T09:20:03;19.60;99.90
52397;DHT22;38322;53.108;6.308;2023-07-13T09:22:33;19.60;99.90
52397;DHT22;38322;53.108;6.308;2023-07-13T09:25:21;19.50;99.90
52397;DHT22;38322;53.108;6.308;2023-07-13T09:27:51;19.50;99.90
52397;DHT22;38322;53.108;6.308;2023-07-13T09:30:33;19.40;99.90
52397;DHT22;38322;53.108;6.308;2023-07-13T09:33:00;19.40;99.90
52397;DHT22;38322;53.108;6.308;2023-07-13T09:35:29;19.40;99.90
52397;DHT22;38322;53.108;6.308;2023-07-13T09:38:01;19.60;99.90
52397;DHT22;38322;53.108;6.308;2023-07-13T09:40:44;19.60;99.90
52397;DHT22;38322;53.108;6.308;2023-07-13T09:43:15;19.70;99.90
52397;DHT22;38322;53.108;6.308;2023-07-13T09:45:45;19.50;99.90
52397;DHT22;38322;53.108;6.308;2023-07-13T09:48:13;19.60;99.90
52397;DHT22;38322;53.108;6.308;2023-07-13T09:50:40;19.70;99.90
52397;DHT22;38322;53.108;6.308;2023-07-13T09:53:17;19.90;99.90
52397;DHT22;38322;53.108;6.308;2023-07-13T09:55:45;20.10;99.90
52397;DHT22;38322;53.108;6.308;2023-07-13T09:58:15;20.30;99.90
52397;DHT22;38322;53.108;6.308;2023-07-13T10:00:44;20.60;99.90
52397;DHT22;38322;53.108;6.308;2023-07-13T10:03:19;20.70;99.90
52397;DHT22;38322;53.108;6.308;2023-07-13T10:05:49;20.80;99.90
52397;DHT22;38322;53.108;6.308;2023-07-13T10:08:20;20.70;99.90
52397;DHT22;38322;53.108;6.308;2023-07-13T10:10:52;20.60;99.90
52397;DHT22;38322;53.108;6.308;2023-07-13T10:13:30;20.40;99.90
52397;DHT22;38322;53.108;6.308;2023-07-13T10:15:58;20.40;99.90
52397;DHT22;38322;53.108;6.308;2023-07-13T10:18:25;20.40;99.90
52397;DHT22;38322;53.108;6.308;2023-07-13T10:21:10;20.70;99.90
52397;DHT22;38322;53.108;6.308;2023-07-13T10:23:36;20.60;99.90
52397;DHT22;38322;53.108;6.308;2023-07-13T10:26:03;20.60;99.90
52397;DHT22;38322;53.108;6.308;2023-07-13T10:28:35;20.50;99.90
52397;DHT22;38322;53.108;6.308;2023-07-13T10:31:02;20.50;99.90
52397;DHT22;38322;53.108;6.308;2023-07-13T10:33:30;20.40;99.90
52397;DHT22;38322;53.108;6.308;2023-07-13T10:38:59;20.10;99.90
52397;DHT22;38322;53.108;6.308;2023-07-13T10:41:28;19.80;99.90
52397;DHT22;38322;53.108;6.308;2023-07-13T10:43:57;19.80;99.90
52397;DHT22;38322;53.108;6.308;2023-07-13T10:46:26;19.70;99.90
52397;DHT22;38322;53.108;6.308;2023-07-13T10:48:57;20.00;99.90
52397;DHT22;38322;53.108;6.308;2023-07-13T10:51:25;20.10;99.90
52397;DHT22;38322;53.108;6.308;2023-07-13T10:54:10;20.40;99.90
52397;DHT22;38322;53.108;6.308;2023-07-13T10:56:39;20.60;99.90
52397;DHT22;38322;53.108;6.308;2023-07-13T10:59:12;20.90;99.90
52397;DHT22;38322;53.108;6.308;2023-07-13T11:01:53;20.90;99.90
52397;DHT22;38322;53.108;6.308;2023-07-13T11:04:20;20.80;99.90
52397;DHT22;38322;53.108;6.308;2023-07-13T11:06:48;20.70;99.90
52397;DHT22;38322;53.108;6.308;2023-07-13T11:09:33;20.70;99.90
52397;DHT22;38322;53.108;6.308;2023-07-13T11:12:07;20.60;99.90
52397;DHT22;38322;53.108;6.308;2023-07-13T11:14:41;20.70;99.90
52397;DHT22;38322;53.108;6.308;2023-07-13T11:22:49;20.80;99.90
52397;DHT22;38322;53.108;6.308;2023-07-13T11:27:52;20.70;99.90
52397;DHT22;38322;53.108;6.308;2023-07-13T11:35:36;21.60;99.90
52397;DHT22;38322;53.108;6.308;2023-07-13T11:38:14;21.70;99.90
52397;DHT22;38322;53.108;6.308;2023-07-13T11:40:44;21.40;99.60
52397;DHT22;38322;53.108;6.308;2023-07-13T11:43:14;21.00;99.90
52397;DHT22;38322;53.108;6.308;2023-07-13T11:45:40;20.90;99.90
52397;DHT22;38322;53.108;6.308;2023-07-13T11:48:19;21.20;99.90
52397;DHT22;38322;53.108;6.308;2023-07-13T11:51:02;21.20;99.70
52397;DHT22;38322;53.108;6.308;2023-07-13T11:53:38;21.10;99.90
52397;DHT22;38322;53.108;6.308;2023-07-13T11:56:05;21.30;99.90
52397;DHT22;38322;53.108;6.308;2023-07-13T11:58:32;21.40;99.90
52397;DHT22;38322;53.108;6.308;2023-07-13T12:01:02;21.50;99.90
52397;DHT22;38322;53.108;6.308;2023-07-13T12:03:30;21.60;99.40
52397;DHT22;38322;53.108;6.308;2023-07-13T12:06:00;21.80;98.80
52397;DHT22;38322;53.108;6.308;2023-07-13T12:08:27;21.80;99.90
52397;DHT22;38322;53.108;6.308;2023-07-13T12:10:58;21.70;99.70
52397;DHT22;38322;53.108;6.308;2023-07-13T12:13:24;21.80;99.60
52397;DHT22;38322;53.108;6.308;2023-07-13T12:15:52;22.00;99.90
52397;DHT22;38322;53.108;6.308;2023-07-13T12:18:21;21.90;99.90
52397;DHT22;38322;53.108;6.308;2023-07-13T12:20:49;21.90;99.90
52397;DHT22;38322;53.108;6.308;2023-07-13T12:23:29;22.20;99.90
52397;DHT22;38322;53.108;6.308;2023-07-13T12:25:57;22.20;99.50
52397;DHT22;38322;53.108;6.308;2023-07-13T12:28:33;22.40;99.80
52397;DHT22;38322;53.108;6.308;2023-07-13T12:31:03;22.50;99.10
52397;DHT22;38322;53.108;6.308;2023-07-13T12:33:31;22.50;98.40
52397;DHT22;38322;53.108;6.308;2023-07-13T12:36:00;22.70;99.00
52397;DHT22;38322;53.108;6.308;2023-07-13T12:38:27;22.60;98.40
52397;DHT22;38322;53.108;6.308;2023-07-13T12:40:54;22.60;98.00
52397;DHT22;38322;53.108;6.308;2023-07-13T12:43:21;22.60;98.70
52397;DHT22;38322;53.108;6.308;2023-07-13T12:46:05;22.70;98.40
52397;DHT22;38322;53.108;6.308;2023-07-13T12:48:42;22.70;97.80
52397;DHT22;38322;53.108;6.308;2023-07-13T12:51:12;22.70;98.40
52397;DHT22;38322;53.108;6.308;2023-07-13T12:53:41;22.70;97.90
52397;DHT22;38322;53.108;6.308;2023-07-13T12:56:15;22.80;98.50
52397;DHT22;38322;53.108;6.308;2023-07-13T12:58:43;22.70;98.30
52397;DHT22;38322;53.108;6.308;2023-07-13T13:01:13;22.50;98.30
52397;DHT22;38322;53.108;6.308;2023-07-13T13:03:44;22.50;97.90
52397;DHT22;38322;53.108;6.308;2023-07-13T13:08:37;22.50;96.80
52397;DHT22;38322;53.108;6.308;2023-07-13T13:11:06;22.70;98.30
52397;DHT22;38322;53.108;6.308;2023-07-13T13:13:32;22.60;99.50
52397;DHT22;38322;53.108;6.308;2023-07-13T13:16:10;22.50;99.80
52397;DHT22;38322;53.108;6.308;2023-07-13T13:18:37;22.60;98.50
52397;DHT22;38322;53.108;6.308;2023-07-13T13:21:03;22.70;98.70
52397;DHT22;38322;53.108;6.308;2023-07-13T13:23:29;22.60;98.50
52397;DHT22;38322;53.108;6.308;2023-07-13T13:25:55;22.40;98.00
52397;DHT22;38322;53.108;6.308;2023-07-13T13:28:21;22.40;97.60
52397;DHT22;38322;53.108;6.308;2023-07-13T13:30:49;22.60;98.20
52397;DHT22;38322;53.108;6.308;2023-07-13T13:33:19;22.60;97.10
52397;DHT22;38322;53.108;6.308;2023-07-13T13:35:46;22.60;97.50
52397;DHT22;38322;53.108;6.308;2023-07-13T13:38:15;22.70;97.50
52397;DHT22;38322;53.108;6.308;2023-07-13T13:40:43;23.00;98.00
52397;DHT22;38322;53.108;6.308;2023-07-13T13:45:42;23.00;97.30
52397;DHT22;38322;53.108;6.308;2023-07-13T13:48:15;22.90;96.40
52397;DHT22;38322;53.108;6.308;2023-07-13T13:50:42;22.90;96.40
52397;DHT22;38322;53.108;6.308;2023-07-13T13:53:11;23.00;96.80
52397;DHT22;38322;53.108;6.308;2023-07-13T13:55:38;23.00;96.30
52397;DHT22;38322;53.108;6.308;2023-07-13T13:58:04;22.60;95.70
52397;DHT22;38322;53.108;6.308;2023-07-13T14:00:30;22.40;97.00
52397;DHT22;38322;53.108;6.308;2023-07-13T14:02:56;22.30;96.60
52397;DHT22;38322;53.108;6.308;2023-07-13T14:05:25;22.50;96.80
52397;DHT22;38322;53.108;6.308;2023-07-13T14:07:53;22.70;96.50
52397;DHT22;38322;53.108;6.308;2023-07-13T14:10:20;22.80;96.30
52397;DHT22;38322;53.108;6.308;2023-07-13T14:12:48;22.80;95.90
52397;DHT22;38322;53.108;6.308;2023-07-13T14:17:45;23.00;96.50
52397;DHT22;38322;53.108;6.308;2023-07-13T14:20:15;23.10;96.80
52397;DHT22;38322;53.108;6.308;2023-07-13T14:22:41;23.40;97.50
52397;DHT22;38322;53.108;6.308;2023-07-13T14:25:15;23.50;96.00
52397;DHT22;38322;53.108;6.308;2023-07-13T14:27:43;23.30;96.60
52397;DHT22;38322;53.108;6.308;2023-07-13T14:30:15;23.30;96.80
52397;DHT22;38322;53.108;6.308;2023-07-13T14:32:41;23.30;96.20
52397;DHT22;38322;53.108;6.308;2023-07-13T14:35:11;23.00;96.10
52397;DHT22;38322;53.108;6.308;2023-07-13T14:37:39;23.20;95.90
52397;DHT22;38322;53.108;6.308;2023-07-13T14:40:13;23.30;96.20
52397;DHT22;38322;53.108;6.308;2023-07-13T14:42:39;23.60;96.00
52397;DHT22;38322;53.108;6.308;2023-07-13T14:45:05;23.70;96.00
52397;DHT22;38322;53.108;6.308;2023-07-13T14:47:31;23.50;95.40
52397;DHT22;38322;53.108;6.308;2023-07-13T14:49:57;23.30;95.40
52397;DHT22;38322;53.108;6.308;2023-07-13T14:52:23;23.40;95.70
52397;DHT22;38322;53.108;6.308;2023-07-13T14:54:51;23.30;95.60
52397;DHT22;38322;53.108;6.308;2023-07-13T14:57:18;23.30;96.00
52397;DHT22;38322;53.108;6.308;2023-07-13T14:59:45;23.30;96.00
52397;DHT22;38322;53.108;6.308;2023-07-13T15:02:31;23.30;96.40
52397;DHT22;38322;53.108;6.308;2023-07-13T15:04:58;22.90;95.80
52397;DHT22;38322;53.108;6.308;2023-07-13T15:07:25;22.60;96.00
52397;DHT22;38322;53.108;6.308;2023-07-13T15:09:51;22.70;96.70
52397;DHT22;38322;53.108;6.308;2023-07-13T15:12:17;22.50;96.10
52397;DHT22;38322;53.108;6.308;2023-07-13T15:14:43;22.20;96.10
52397;DHT22;38322;53.108;6.308;2023-07-13T15:19:47;22.50;95.50
52397;DHT22;38322;53.108;6.308;2023-07-13T15:22:12;22.80;96.00
52397;DHT22;38322;53.108;6.308;2023-07-13T15:24:38;23.10;96.20
52397;DHT22;38322;53.108;6.308;2023-07-13T15:27:07;22.90;96.00
52397;DHT22;38322;53.108;6.308;2023-07-13T15:29:35;22.60;96.40
52397;DHT22;38322;53.108;6.308;2023-07-13T15:32:02;22.80;96.80
52397;DHT22;38322;53.108;6.308;2023-07-13T15:34:28;23.30;97.00
52397;DHT22;38322;53.108;6.308;2023-07-13T15:36:54;23.50;96.50
52397;DHT22;38322;53.108;6.308;2023-07-13T15:39:20;23.70;96.70
52397;DHT22;38322;53.108;6.308;2023-07-13T15:41:47;24.00;96.10
52397;DHT22;38322;53.108;6.308;2023-07-13T15:44:25;24.00;95.90
52397;DHT22;38322;53.108;6.308;2023-07-13T15:46:52;23.50;95.20
52397;DHT22;38322;53.108;6.308;2023-07-13T15:49:18;23.50;96.10
52397;DHT22;38322;53.108;6.308;2023-07-13T15:51:44;24.00;96.60
52397;DHT22;38322;53.108;6.308;2023-07-13T15:54:13;24.10;95.80
52397;DHT22;38322;53.108;6.308;2023-07-13T15:56:40;24.00;95.10
52397;DHT22;38322;53.108;6.308;2023-07-13T15:59:10;24.40;95.10
52397;DHT22;38322;53.108;6.308;2023-07-13T16:01:38;24.40;94.30
52397;DHT22;38322;53.108;6.308;2023-07-13T16:04:04;24.70;94.80
52397;DHT22;38322;53.108;6.308;2023-07-13T16:06:34;24.40;94.30
52397;DHT22;38322;53.108;6.308;2023-07-13T16:09:02;24.60;94.10
52397;DHT22;38322;53.108;6.308;2023-07-13T16:11:34;24.40;93.80
52397;DHT22;38322;53.108;6.308;2023-07-13T16:14:00;24.60;93.20
52397;DHT22;38322;53.108;6.308;2023-07-13T16:16:28;24.50;93.10
52397;DHT22;38322;53.108;6.308;2023-07-13T16:18:56;24.40;93.50
52397;DHT22;38322;53.108;6.308;2023-07-13T16:21:25;24.60;93.50
52397;DHT22;38322;53.108;6.308;2023-07-13T16:23:52;24.50;92.60
52397;DHT22;38322;53.108;6.308;2023-07-13T16:26:32;24.60;92.80
52397;DHT22;38322;53.108;6.308;2023-07-13T16:31:36;24.40;93.20
52397;DHT22;38322;53.108;6.308;2023-07-13T16:34:02;23.90;93.30
52397;DHT22;38322;53.108;6.308;2023-07-13T16:36:29;24.10;93.20
52397;DHT22;38322;53.108;6.308;2023-07-13T16:38:56;24.40;93.40
52397;DHT22;38322;53.108;6.308;2023-07-13T16:41:22;24.30;93.40
52397;DHT22;38322;53.108;6.308;2023-07-13T16:43:48;23.80;93.30
52397;DHT22;38322;53.108;6.308;2023-07-13T16:46:19;23.90;93.50
52397;DHT22;38322;53.108;6.308;2023-07-13T16:48:46;23.90;94.10
52397;DHT22;38322;53.108;6.308;2023-07-13T16:51:12;23.80;93.70
52397;DHT22;38322;53.108;6.308;2023-07-13T16:53:38;23.80;93.30
52397;DHT22;38322;53.108;6.308;2023-07-13T16:56:14;23.90;93.20
52397;DHT22;38322;53.108;6.308;2023-07-13T16:58:42;24.00;93.10
52397;DHT22;38322;53.108;6.308;2023-07-13T17:01:08;24.10;93.50
52397;DHT22;38322;53.108;6.308;2023-07-13T17:03:34;24.40;93.10
52397;DHT22;38322;53.108;6.308;2023-07-13T17:06:02;24.90;93.00
52397;DHT22;38322;53.108;6.308;2023-07-13T17:08:36;24.90;92.60
52397;DHT22;38322;53.108;6.308;2023-07-13T17:11:02;24.70;92.60
52397;DHT22;38322;53.108;6.308;2023-07-13T17:13:29;24.40;92.50
52397;DHT22;38322;53.108;6.308;2023-07-13T17:15:57;24.10;92.80
52397;DHT22;38322;53.108;6.308;2023-07-13T17:18:25;24.20;93.00
52397;DHT22;38322;53.108;6.308;2023-07-13T17:20:52;24.40;93.20
52397;DHT22;38322;53.108;6.308;2023-07-13T17:23:21;24.70;92.80
52397;DHT22;38322;53.108;6.308;2023-07-13T17:25:50;24.80;92.70
52397;DHT22;38322;53.108;6.308;2023-07-13T17:28:23;25.20;92.60
52397;DHT22;38322;53.108;6.308;2023-07-13T17:30:51;25.20;92.20
52397;DHT22;38322;53.108;6.308;2023-07-13T17:33:38;25.20;91.90
52397;DHT22;38322;53.108;6.308;2023-07-13T17:36:11;25.60;92.20
52397;DHT22;38322;53.108;6.308;2023-07-13T17:38:39;25.70;91.90
52397;DHT22;38322;53.108;6.308;2023-07-13T17:41:09;25.70;92.30
52397;DHT22;38322;53.108;6.308;2023-07-13T17:43:37;25.70;92.30
52397;DHT22;38322;53.108;6.308;2023-07-13T17:46:13;25.00;92.40
52397;DHT22;38322;53.108;6.308;2023-07-13T17:48:42;24.80;93.00
52397;DHT22;38322;53.108;6.308;2023-07-13T17:51:12;24.60;93.10
52397;DHT22;38322;53.108;6.308;2023-07-13T17:53:38;24.60;93.30
52397;DHT22;38322;53.108;6.308;2023-07-13T17:56:09;24.40;93.50
52397;DHT22;38322;53.108;6.308;2023-07-13T17:58:36;24.10;94.00
52397;DHT22;38322;53.108;6.308;2023-07-13T18:01:03;24.10;93.90
52397;DHT22;38322;53.108;6.308;2023-07-13T18:03:31;23.90;94.30
52397;DHT22;38322;53.108;6.308;2023-07-13T18:06:02;23.50;95.00
52397;DHT22;38322;53.108;6.308;2023-07-13T18:08:30;23.40;95.40
52397;DHT22;38322;53.108;6.308;2023-07-13T18:10:59;23.00;95.60
52397;DHT22;38322;53.108;6.308;2023-07-13T18:13:26;22.50;95.80
52397;DHT22;38322;53.108;6.308;2023-07-13T18:15:54;22.20;95.70
52397;DHT22;38322;53.108;6.308;2023-07-13T18:18:22;21.90;95.90
52397;DHT22;38322;53.108;6.308;2023-07-13T18:20:48;21.60;96.20
52397;DHT22;38322;53.108;6.308;2023-07-13T18:23:17;21.40;96.50
52397;DHT22;38322;53.108;6.308;2023-07-13T18:25:44;21.30;96.70
52397;DHT22;38322;53.108;6.308;2023-07-13T18:28:11;21.30;96.80
52397;DHT22;38322;53.108;6.308;2023-07-13T18:30:39;21.10;97.20
52397;DHT22;38322;53.108;6.308;2023-07-13T18:33:16;21.00;97.60
52397;DHT22;38322;53.108;6.308;2023-07-13T18:35:43;20.80;98.10
52397;DHT22;38322;53.108;6.308;2023-07-13T18:38:17;20.80;98.00
52397;DHT22;38322;53.108;6.308;2023-07-13T18:40:45;20.70;98.60
52397;DHT22;38322;53.108;6.308;2023-07-13T18:45:38;20.60;98.60
52397;DHT22;38322;53.108;6.308;2023-07-13T18:48:07;20.50;99.00
52397;DHT22;38322;53.108;6.308;2023-07-13T18:50:37;20.50;99.20
52397;DHT22;38322;53.108;6.308;2023-07-13T18:53:11;20.40;99.80
52397;DHT22;38322;53.108;6.308;2023-07-13T18:55:38;20.40;99.90
52397;DHT22;38322;53.108;6.308;2023-07-13T18:58:05;20.40;99.90
52397;DHT22;38322;53.108;6.308;2023-07-13T19:00:32;20.30;99.90
52397;DHT22;38322;53.108;6.308;2023-07-13T19:02:58;20.20;99.90
52397;DHT22;38322;53.108;6.308;2023-07-13T19:05:29;20.10;99.90
52397;DHT22;38322;53.108;6.308;2023-07-13T19:07:55;19.90;99.90
52397;DHT22;38322;53.108;6.308;2023-07-13T19:10:25;19.90;99.90
52397;DHT22;38322;53.108;6.308;2023-07-13T19:12:56;19.80;99.90
52397;DHT22;38322;53.108;6.308;2023-07-13T19:15:28;19.80;99.90
52397;DHT22;38322;53.108;6.308;2023-07-13T19:17:57;19.80;99.90
52397;DHT22;38322;53.108;6.308;2023-07-13T19:20:24;19.80;99.90
52397;DHT22;38322;53.108;6.308;2023-07-13T19:22:59;19.70;99.90
52397;DHT22;38322;53.108;6.308;2023-07-13T19:25:27;19.70;99.90
52397;DHT22;38322;53.108;6.308;2023-07-13T19:27:58;19.60;99.90
52397;DHT22;38322;53.108;6.308;2023-07-13T19:30:24;19.50;99.90
52397;DHT22;38322;53.108;6.308;2023-07-13T19:32:50;19.40;99.90
52397;DHT22;38322;53.108;6.308;2023-07-13T19:35:17;19.30;99.90
52397;DHT22;38322;53.108;6.308;2023-07-13T19:42:43;19.30;99.90
52397;DHT22;38322;53.108;6.308;2023-07-13T19:45:16;19.00;99.90
52397;DHT22;38322;53.108;6.308;2023-07-13T19:47:42;18.90;99.90
52397;DHT22;38322;53.108;6.308;2023-07-13T19:50:11;18.90;99.90
52397;DHT22;38322;53.108;6.308;2023-07-13T19:52:41;18.80;99.90
52397;DHT22;38322;53.108;6.308;2023-07-13T19:55:11;18.70;99.90
52397;DHT22;38322;53.108;6.308;2023-07-13T19:57:38;18.70;99.90
52397;DHT22;38322;53.108;6.308;2023-07-13T20:00:14;18.70;99.90
